createdAt,value
2023-07-24T00:00:06.634Z,6.25
2023-07-24T00:02:33.373Z,6.55
2023-07-24T00:04:59.966Z,6.15
2023-07-24T00:07:26.673Z,8.07
2023-07-24T00:09:53.773Z,7.40
2023-07-24T00:12:20.374Z,5.93
2023-07-24T00:14:46.985Z,4.85
2023-07-24T00:17:13.651Z,5.45
2023-07-24T00:19:40.239Z,4.68
2023-07-24T00:22:06.941Z,5.38
2023-07-24T00:24:33.622Z,7.38
2023-07-24T00:27:00.366Z,6.00
2023-07-24T00:29:27.006Z,6.35
2023-07-24T00:31:53.661Z,7.50
2023-07-24T00:34:20.304Z,5.72
2023-07-24T00:36:46.937Z,6.63
2023-07-24T00:39:16.104Z,8.23
2023-07-24T00:41:43.811Z,4.90
2023-07-24T00:44:10.430Z,7.95
2023-07-24T00:46:37.373Z,5.53
2023-07-24T00:49:05.732Z,5.68
2023-07-24T00:51:32.761Z,5.38
2023-07-24T00:54:02.197Z,5.55
2023-07-24T00:56:30.511Z,5.40
2023-07-24T00:58:57.953Z,4.53
2023-07-24T01:01:25.161Z,5.95
2023-07-24T01:03:52.880Z,5.78
2023-07-24T01:06:19.804Z,4.72
2023-07-24T01:08:46.447Z,6.13
2023-07-24T01:11:17.461Z,5.68
2023-07-24T01:13:57.032Z,5.10
2023-07-24T01:16:27.858Z,4.70
2023-07-24T01:18:57.091Z,5.05
2023-07-24T01:26:42.818Z,4.95
2023-07-24T01:29:09.414Z,5.65
2023-07-24T01:31:36.270Z,4.75
2023-07-24T01:34:02.917Z,4.50
2023-07-24T01:36:29.740Z,5.15
2023-07-24T01:38:57.489Z,4.78
2023-07-24T01:41:25.079Z,5.25
2023-07-24T01:43:51.712Z,5.22
2023-07-24T01:46:18.361Z,4.60
2023-07-24T01:48:45.096Z,5.13
2023-07-24T01:51:11.676Z,4.97
2023-07-24T01:53:38.261Z,6.18
2023-07-24T01:56:05.174Z,4.63
2023-07-24T01:58:31.850Z,5.75
2023-07-24T02:00:58.521Z,6.00
2023-07-24T02:03:25.270Z,6.57
2023-07-24T02:05:52.746Z,5.38
2023-07-24T02:08:19.500Z,4.95
2023-07-24T02:10:49.953Z,5.70
2023-07-24T02:13:16.633Z,6.28
2023-07-24T02:15:43.202Z,5.88
2023-07-24T02:18:09.931Z,6.57
2023-07-24T02:20:36.522Z,5.00
2023-07-24T02:23:03.138Z,5.10
2023-07-24T02:25:29.784Z,5.80
2023-07-24T02:27:56.983Z,6.53
2023-07-24T02:30:23.640Z,6.35
2023-07-24T02:32:50.701Z,4.82
2023-07-24T02:35:19.302Z,5.43
2023-07-24T02:37:46.363Z,6.78
2023-07-24T02:40:13.409Z,5.35
2023-07-24T02:42:41.270Z,5.28
2023-07-24T02:45:12.373Z,5.10
2023-07-24T02:47:39.184Z,5.40
2023-07-24T02:50:06.180Z,5.03
2023-07-24T02:56:21.723Z,7.40
2023-07-24T02:58:48.301Z,3.80
2023-07-24T03:01:15.468Z,5.03
2023-07-24T03:03:42.703Z,4.93
2023-07-24T03:06:09.442Z,5.70
2023-07-24T03:08:36.006Z,5.43
2023-07-24T03:11:06.033Z,4.28
2023-07-24T03:13:32.572Z,5.25
2023-07-24T03:16:00.221Z,6.18
2023-07-24T03:18:27.000Z,5.75
2023-07-24T03:20:53.611Z,5.57
2023-07-24T03:23:21.299Z,4.18
2023-07-24T03:25:48.113Z,5.03
2023-07-24T03:28:14.665Z,5.35
2023-07-24T03:30:41.270Z,5.57
2023-07-24T03:33:08.398Z,4.90
2023-07-24T03:35:35.157Z,6.10
2023-07-24T03:38:01.758Z,5.78
2023-07-24T03:40:28.370Z,5.30
2023-07-24T03:42:55.010Z,4.53
2023-07-24T03:45:21.888Z,4.53
2023-07-24T03:47:48.505Z,6.18
2023-07-24T03:50:15.225Z,4.63
2023-07-24T03:52:41.799Z,6.43
2023-07-24T03:55:09.134Z,7.80
2023-07-24T03:57:35.891Z,5.78
2023-07-24T04:00:03.887Z,5.18
2023-07-24T04:02:30.477Z,5.63
2023-07-24T04:04:57.214Z,5.30
2023-07-24T04:07:24.002Z,4.20
2023-07-24T04:09:50.653Z,5.78
2023-07-24T04:12:17.203Z,4.85
2023-07-24T04:14:43.849Z,5.05
2023-07-24T04:17:10.751Z,5.85
2023-07-24T04:19:37.374Z,4.88
2023-07-24T04:22:04.209Z,5.78
2023-07-24T04:24:30.790Z,6.50
2023-07-24T04:26:57.402Z,7.75
2023-07-24T04:29:26.840Z,7.35
2023-07-24T04:31:53.628Z,5.65
2023-07-24T04:34:20.432Z,5.05
2023-07-24T04:36:46.967Z,5.63
2023-07-24T04:39:13.572Z,6.20
2023-07-24T04:41:40.182Z,5.82
2023-07-24T04:44:06.727Z,7.50
2023-07-24T04:46:33.687Z,6.10
2023-07-24T04:49:00.640Z,6.85
2023-07-24T04:51:27.242Z,6.18
2023-07-24T04:53:54.816Z,7.25
2023-07-24T04:56:21.389Z,5.57
2023-07-24T04:58:47.938Z,7.45
2023-07-24T05:01:14.507Z,6.55
2023-07-24T05:03:41.153Z,6.05
2023-07-24T05:06:07.739Z,6.57
2023-07-24T05:08:34.426Z,8.85
2023-07-24T05:11:01.043Z,7.03
2023-07-24T05:13:28.177Z,10.85
2023-07-24T05:15:54.758Z,8.13
2023-07-24T05:18:21.491Z,9.02
2023-07-24T05:20:49.709Z,6.30
2023-07-24T05:23:16.417Z,4.78
2023-07-24T05:25:43.061Z,6.18
2023-07-24T05:28:10.447Z,7.05
2023-07-24T05:30:37.304Z,6.88
2023-07-24T05:33:03.982Z,5.80
2023-07-24T05:35:30.722Z,6.32
2023-07-24T05:37:57.373Z,6.75
2023-07-24T05:40:24.028Z,7.57
2023-07-24T05:42:50.612Z,8.00
2023-07-24T05:45:17.226Z,7.35
2023-07-24T05:47:43.955Z,5.70
2023-07-24T05:50:11.003Z,6.45
2023-07-24T05:52:37.578Z,5.18
2023-07-24T05:55:04.597Z,5.95
2023-07-24T05:57:31.250Z,5.60
2023-07-24T05:59:57.816Z,5.80
2023-07-24T06:02:24.674Z,5.75
2023-07-24T06:04:51.402Z,5.93
2023-07-24T06:07:18.083Z,5.60
2023-07-24T06:09:44.688Z,5.53
2023-07-24T06:12:11.297Z,7.55
2023-07-24T06:14:37.871Z,6.00
2023-07-24T06:17:05.384Z,7.38
2023-07-24T06:19:32.050Z,5.82
2023-07-24T06:21:58.754Z,6.63
2023-07-24T06:24:25.452Z,5.90
2023-07-24T06:26:52.097Z,6.80
2023-07-24T06:29:18.748Z,5.70
2023-07-24T06:31:45.382Z,6.25
2023-07-24T06:34:12.081Z,8.50
2023-07-24T06:36:38.631Z,7.63
2023-07-24T06:39:05.276Z,5.80
2023-07-24T06:41:31.893Z,5.97
2023-07-24T06:43:58.492Z,5.35
2023-07-24T06:46:25.136Z,6.53
2023-07-24T06:48:51.724Z,6.97
2023-07-24T06:51:18.316Z,6.78
2023-07-24T06:53:44.873Z,6.47
2023-07-24T06:56:11.426Z,6.63
2023-07-24T06:58:37.967Z,6.35
2023-07-24T07:01:08.309Z,6.25
2023-07-24T07:03:38.094Z,6.28
2023-07-24T07:06:04.853Z,5.43
2023-07-24T07:08:31.851Z,4.93
2023-07-24T07:10:59.592Z,5.90
2023-07-24T07:13:26.237Z,4.88
2023-07-24T07:15:52.904Z,7.13
2023-07-24T07:18:19.715Z,5.47
2023-07-24T07:20:51.461Z,6.47
2023-07-24T07:23:18.738Z,7.25
2023-07-24T07:25:48.716Z,6.95
2023-07-24T07:28:16.814Z,5.80
2023-07-24T07:30:46.083Z,5.28
2023-07-24T07:33:12.945Z,6.18
2023-07-24T07:35:39.517Z,5.45
2023-07-24T07:38:06.121Z,5.78
2023-07-24T07:40:32.756Z,6.53
2023-07-24T07:42:59.337Z,5.95
2023-07-24T07:45:26.313Z,5.10
2023-07-24T07:47:54.447Z,5.50
2023-07-24T07:50:21.338Z,5.45
2023-07-24T07:52:51.748Z,5.40
2023-07-24T07:55:21.284Z,5.95
2023-07-24T07:57:47.904Z,7.13
2023-07-24T08:00:14.871Z,6.45
2023-07-24T08:02:41.592Z,7.47
2023-07-24T08:05:13.629Z,5.60
2023-07-24T08:07:41.153Z,5.95
2023-07-24T08:10:08.133Z,6.05
2023-07-24T08:12:35.117Z,5.35
2023-07-24T08:15:01.853Z,5.72
2023-07-24T08:17:28.598Z,5.40
2023-07-24T08:19:55.323Z,5.50
2023-07-24T08:22:23.748Z,6.82
2023-07-24T08:24:53.000Z,5.78
2023-07-24T08:27:21.115Z,5.78
2023-07-24T08:29:47.677Z,7.75
2023-07-24T08:32:14.529Z,6.90
2023-07-24T08:34:41.156Z,6.70
2023-07-24T08:37:07.745Z,6.07
2023-07-24T08:39:34.379Z,7.28
2023-07-24T08:42:01.202Z,6.32
2023-07-24T08:44:32.205Z,5.10
2023-07-24T08:46:59.362Z,6.63
2023-07-24T08:49:26.773Z,6.95
2023-07-24T08:51:54.293Z,7.07
2023-07-24T08:54:21.541Z,6.75
2023-07-24T08:56:51.349Z,7.13
2023-07-24T08:59:17.983Z,6.18
2023-07-24T09:01:45.271Z,6.10
2023-07-24T09:04:11.830Z,7.07
2023-07-24T09:06:38.557Z,7.63
2023-07-24T09:09:14.931Z,6.88
2023-07-24T09:11:50.261Z,7.75
2023-07-24T09:14:31.185Z,8.73
2023-07-24T09:17:05.013Z,5.88
2023-07-24T09:19:32.130Z,6.95
2023-07-24T09:22:12.765Z,7.65
2023-07-24T09:24:49.958Z,5.53
2023-07-24T09:27:16.656Z,6.32
2023-07-24T09:29:43.313Z,6.00
2023-07-24T09:32:39.121Z,5.65
2023-07-24T09:35:07.201Z,6.55
2023-07-24T09:37:35.467Z,7.55
2023-07-24T09:40:05.397Z,9.02
2023-07-24T09:42:47.467Z,9.35
2023-07-24T09:45:23.288Z,7.30
2023-07-24T09:47:56.545Z,10.57
2023-07-24T09:50:27.280Z,7.53
2023-07-24T09:52:55.722Z,10.65
2023-07-24T09:55:33.748Z,9.00
2023-07-24T09:58:01.794Z,7.18
2023-07-24T10:00:29.294Z,6.47
2023-07-24T10:02:57.176Z,6.40
2023-07-24T10:05:24.046Z,8.50
2023-07-24T10:07:52.502Z,6.97
2023-07-24T10:10:19.524Z,9.38
2023-07-24T10:12:46.310Z,8.18
2023-07-24T10:15:13.282Z,7.90
2023-07-24T10:17:41.813Z,7.75
2023-07-24T10:22:39.088Z,7.00
2023-07-24T10:25:06.990Z,7.78
2023-07-24T10:27:37.805Z,8.60
2023-07-24T10:30:18.639Z,6.88
2023-07-24T10:32:54.219Z,6.53
2023-07-24T10:35:23.900Z,5.63
2023-07-24T10:38:01.290Z,7.72
2023-07-24T10:40:28.048Z,8.90
2023-07-24T10:43:07.911Z,9.07
2023-07-24T10:45:43.620Z,7.57
2023-07-24T10:48:12.773Z,10.13
2023-07-24T10:50:41.226Z,7.65
2023-07-24T10:53:07.849Z,8.38
2023-07-24T10:55:34.537Z,6.53
2023-07-24T10:58:01.129Z,6.40
2023-07-24T11:00:28.589Z,8.60
2023-07-24T11:02:55.956Z,8.30
2023-07-24T11:05:23.872Z,9.80
2023-07-24T11:07:50.924Z,8.57
2023-07-24T11:10:21.122Z,8.25
2023-07-24T11:12:48.387Z,7.90
2023-07-24T11:15:15.694Z,7.10
2023-07-24T11:17:43.676Z,9.52
2023-07-24T11:20:16.107Z,8.68
2023-07-24T11:22:44.463Z,8.60
2023-07-24T11:25:12.250Z,8.98
2023-07-24T11:27:42.459Z,9.05
2023-07-24T11:30:10.329Z,12.38
2023-07-24T11:32:39.895Z,8.32
2023-07-24T11:35:07.522Z,8.75
2023-07-24T11:37:35.954Z,8.77
2023-07-24T11:40:11.991Z,10.27
2023-07-24T11:42:40.476Z,8.13
2023-07-24T11:45:10.861Z,9.05
2023-07-24T11:47:48.622Z,8.48
2023-07-24T11:50:17.306Z,10.20
2023-07-24T11:55:15.498Z,7.75
2023-07-24T11:57:42.196Z,8.05
2023-07-24T12:00:20.981Z,10.25
2023-07-24T12:02:47.774Z,10.55
2023-07-24T12:05:14.578Z,9.65
2023-07-24T12:07:45.050Z,9.43
2023-07-24T12:10:13.916Z,7.78
2023-07-24T12:12:47.996Z,10.75
2023-07-24T12:15:16.001Z,8.63
2023-07-24T12:17:42.712Z,11.20
2023-07-24T12:20:13.687Z,9.15
2023-07-24T12:22:40.495Z,9.90
2023-07-24T12:25:07.632Z,8.20
2023-07-24T12:27:34.607Z,7.03
2023-07-24T12:30:01.706Z,9.10
2023-07-24T12:32:28.341Z,11.55
2023-07-24T12:34:55.299Z,9.32
2023-07-24T12:37:22.085Z,10.38
2023-07-24T12:39:49.410Z,9.70
2023-07-24T12:42:16.994Z,9.82
2023-07-24T12:44:44.862Z,9.75
2023-07-24T12:47:12.672Z,8.57
2023-07-24T12:49:39.790Z,9.18
2023-07-24T12:52:07.056Z,9.43
2023-07-24T12:54:50.501Z,9.60
2023-07-24T12:57:20.238Z,6.38
2023-07-24T12:59:46.882Z,10.05
2023-07-24T13:02:13.450Z,7.90
2023-07-24T13:04:40.461Z,9.73
2023-07-24T13:07:07.201Z,11.82
2023-07-24T13:09:33.746Z,9.48
2023-07-24T13:12:00.404Z,10.30
2023-07-24T13:14:26.956Z,9.73
2023-07-24T13:16:53.663Z,9.98
2023-07-24T13:19:21.591Z,10.82
2023-07-24T13:21:48.564Z,10.05
2023-07-24T13:24:15.527Z,10.02
2023-07-24T13:26:42.290Z,10.38
2023-07-24T13:29:08.905Z,11.35
2023-07-24T13:31:36.174Z,11.43
2023-07-24T13:34:03.303Z,7.90
2023-07-24T13:36:30.363Z,9.40
2023-07-24T13:38:57.224Z,8.05
2023-07-24T13:41:23.804Z,8.38
2023-07-24T13:43:50.446Z,9.10
2023-07-24T13:46:17.074Z,10.00
2023-07-24T13:48:43.840Z,7.70
2023-07-24T13:51:10.483Z,6.97
2023-07-24T13:53:37.161Z,6.55
2023-07-24T13:56:04.274Z,6.70
2023-07-24T13:58:30.888Z,5.75
2023-07-24T14:00:57.504Z,6.35
2023-07-24T14:03:29.273Z,6.35
2023-07-24T14:05:56.809Z,5.70
2023-07-24T14:08:23.426Z,5.85
2023-07-24T14:10:50.140Z,5.20
2023-07-24T14:13:16.757Z,5.28
2023-07-24T14:15:43.652Z,4.68
2023-07-24T14:18:10.271Z,5.05
2023-07-24T14:20:38.340Z,6.30
2023-07-24T14:23:04.939Z,5.88
2023-07-24T14:25:31.565Z,4.93
2023-07-24T14:27:58.165Z,5.30
2023-07-24T14:30:24.715Z,6.15
2023-07-24T14:32:51.853Z,5.45
2023-07-24T14:35:19.373Z,4.75
2023-07-24T14:37:45.982Z,5.47
2023-07-24T14:40:13.290Z,6.90
2023-07-24T14:42:39.934Z,6.45
2023-07-24T14:45:07.338Z,6.22
2023-07-24T14:47:33.934Z,7.30
2023-07-24T14:50:00.623Z,6.07
2023-07-24T14:52:27.258Z,6.80
2023-07-24T14:54:53.871Z,7.72
2023-07-24T14:57:25.473Z,6.55
2023-07-24T14:59:52.545Z,5.45
2023-07-24T15:02:19.809Z,7.55
2023-07-24T15:04:46.494Z,7.03
2023-07-24T15:07:13.102Z,6.50
2023-07-24T15:09:39.712Z,6.70
2023-07-24T15:12:06.688Z,6.78
2023-07-24T15:14:33.376Z,7.63
2023-07-24T15:17:00.074Z,6.25
2023-07-24T15:19:26.686Z,6.85
2023-07-24T15:21:53.307Z,8.07
2023-07-24T15:24:20.373Z,6.55
2023-07-24T15:26:47.278Z,9.00
2023-07-24T15:29:18.860Z,8.85
2023-07-24T15:31:46.145Z,8.95
2023-07-24T15:34:12.959Z,6.75
2023-07-24T15:36:39.731Z,7.57
2023-07-24T15:39:06.518Z,7.15
2023-07-24T15:41:33.893Z,7.85
2023-07-24T15:44:00.873Z,9.85
2023-07-24T15:46:33.022Z,9.10
2023-07-24T15:49:00.813Z,8.20
2023-07-24T15:51:27.911Z,8.75
2023-07-24T15:53:55.184Z,11.65
2023-07-24T15:56:22.360Z,8.75
2023-07-24T15:58:51.055Z,9.23
2023-07-24T16:01:18.148Z,6.72
2023-07-24T16:03:45.076Z,8.82
2023-07-24T16:06:12.540Z,8.68
2023-07-24T16:08:39.368Z,8.98
2023-07-24T16:11:09.369Z,9.18
2023-07-24T16:13:45.172Z,9.75
2023-07-24T16:16:15.014Z,8.05
2023-07-24T16:18:42.458Z,8.77
2023-07-24T16:21:09.137Z,7.82
2023-07-24T16:23:36.062Z,9.45
2023-07-24T16:26:02.924Z,11.73
2023-07-24T16:28:29.564Z,9.13
2023-07-24T16:30:58.924Z,9.93
2023-07-24T16:33:26.023Z,9.15
2023-07-24T16:35:53.160Z,8.43
2023-07-24T16:38:19.977Z,10.43
2023-07-24T16:40:46.768Z,9.55
2023-07-24T16:43:13.434Z,8.75
2023-07-24T16:45:40.089Z,8.48
2023-07-24T16:48:07.186Z,10.63
2023-07-24T16:50:36.479Z,8.55
2023-07-24T16:53:04.187Z,10.27
2023-07-24T16:55:30.843Z,9.73
2023-07-24T16:57:57.869Z,9.70
2023-07-24T17:00:24.603Z,8.98
2023-07-24T17:02:51.375Z,8.35
2023-07-24T17:05:18.193Z,9.85
2023-07-24T17:07:44.810Z,9.45
2023-07-24T17:10:11.575Z,9.75
2023-07-24T17:12:38.170Z,10.20
2023-07-24T17:15:05.069Z,8.85
2023-07-24T17:17:31.755Z,8.25
2023-07-24T17:19:58.442Z,9.88
2023-07-24T17:22:25.246Z,9.35
2023-07-24T17:24:52.247Z,9.45
2023-07-24T17:27:18.889Z,9.10
2023-07-24T17:29:46.298Z,8.73
2023-07-24T17:32:14.166Z,9.27
2023-07-24T17:34:42.037Z,10.07
2023-07-24T17:37:08.669Z,9.05
2023-07-24T17:39:35.354Z,8.40
2023-07-24T17:42:02.035Z,10.05
2023-07-24T17:44:28.644Z,13.35
2023-07-24T17:46:55.261Z,9.82
2023-07-24T17:49:21.896Z,10.70
2023-07-24T17:51:48.535Z,9.73
2023-07-24T17:54:15.069Z,14.85
2023-07-24T17:56:41.954Z,8.82
2023-07-24T17:59:08.523Z,8.75
2023-07-24T18:01:36.225Z,9.98
2023-07-24T18:04:02.911Z,8.32
2023-07-24T18:06:29.525Z,10.43
2023-07-24T18:08:56.076Z,8.73
2023-07-24T18:11:22.730Z,9.00
2023-07-24T18:13:49.306Z,9.57
2023-07-24T18:16:17.285Z,9.88
2023-07-24T18:18:44.249Z,10.00
2023-07-24T18:21:10.896Z,10.15
2023-07-24T18:23:37.495Z,9.43
2023-07-24T18:26:04.233Z,9.50
2023-07-24T18:28:30.848Z,10.20
2023-07-24T18:30:57.423Z,10.55
2023-07-24T18:33:23.991Z,8.90
2023-07-24T18:35:53.391Z,9.70
2023-07-24T18:38:21.362Z,12.40
2023-07-24T18:40:48.103Z,11.05
2023-07-24T18:43:14.730Z,8.60
2023-07-24T18:45:41.430Z,8.40
2023-07-24T18:48:10.322Z,9.13
2023-07-24T18:50:37.006Z,10.43
2023-07-24T18:53:03.711Z,9.63
2023-07-24T18:55:30.574Z,9.05
2023-07-24T18:57:57.206Z,10.18
2023-07-24T19:00:23.890Z,8.60
2023-07-24T19:02:50.509Z,8.43
2023-07-24T19:05:17.154Z,8.88
2023-07-24T19:07:43.762Z,11.25
2023-07-24T19:10:11.371Z,10.90
2023-07-24T19:12:39.834Z,8.27
2023-07-24T19:15:07.930Z,8.48
2023-07-24T19:17:34.958Z,12.10
2023-07-24T19:20:01.653Z,6.35
2023-07-24T19:22:28.287Z,7.90
2023-07-24T19:24:55.348Z,6.70
2023-07-24T19:27:23.295Z,6.72
2023-07-24T19:29:51.154Z,5.35
2023-07-24T19:32:18.239Z,6.63
2023-07-24T19:34:45.288Z,4.60
2023-07-24T19:37:12.144Z,5.25
2023-07-24T19:39:41.803Z,4.65
2023-07-24T19:42:10.577Z,5.07
2023-07-24T19:44:38.469Z,5.72
2023-07-24T19:47:05.433Z,5.10
2023-07-24T19:49:34.510Z,4.53
2023-07-24T19:52:01.880Z,6.38
2023-07-24T19:54:30.027Z,3.88
2023-07-24T19:56:56.757Z,5.28
2023-07-24T19:59:23.646Z,5.05
2023-07-24T20:01:50.300Z,4.47
2023-07-24T20:04:16.972Z,9.48
2023-07-24T20:06:43.508Z,5.85
2023-07-24T20:09:10.156Z,4.18
2023-07-24T20:11:36.986Z,5.72
2023-07-24T20:14:03.772Z,6.60
2023-07-24T20:16:30.509Z,5.97
2023-07-24T20:18:57.132Z,6.32
2023-07-24T20:21:23.900Z,5.35
2023-07-24T20:23:50.507Z,5.32
2023-07-24T20:26:17.082Z,5.53
2023-07-24T20:28:44.506Z,4.28
2023-07-24T20:31:11.874Z,5.10
2023-07-24T20:33:38.834Z,5.30
2023-07-24T20:36:09.918Z,5.80
2023-07-24T20:38:37.998Z,5.93
2023-07-24T20:41:04.648Z,5.50
2023-07-24T20:43:31.316Z,4.53
2023-07-24T20:45:58.115Z,6.28
2023-07-24T20:48:25.858Z,5.18
2023-07-24T20:50:54.265Z,4.93
2023-07-24T20:53:20.847Z,4.78
2023-07-24T20:55:48.028Z,5.13
2023-07-24T20:58:14.584Z,4.25
2023-07-24T21:00:41.167Z,5.20
2023-07-24T21:03:07.855Z,4.45
2023-07-24T21:05:37.260Z,3.53
2023-07-24T21:08:04.600Z,3.03
2023-07-24T21:10:31.191Z,5.68
2023-07-24T21:12:57.808Z,2.85
2023-07-24T21:15:24.399Z,5.03
2023-07-24T21:17:51.039Z,8.00
2023-07-24T21:20:17.664Z,4.53
2023-07-24T21:22:44.285Z,4.25
2023-07-24T21:25:10.919Z,3.92
2023-07-24T21:27:37.648Z,4.82
2023-07-24T21:30:05.199Z,5.22
2023-07-24T21:32:31.827Z,4.32
2023-07-24T21:34:58.417Z,4.13
2023-07-24T21:37:25.032Z,4.40
2023-07-24T21:39:51.606Z,4.85
2023-07-24T21:42:18.234Z,8.90
2023-07-24T21:44:44.801Z,4.22
2023-07-24T21:47:11.528Z,5.35
2023-07-24T21:49:38.149Z,4.30
2023-07-24T21:52:05.116Z,5.50
2023-07-24T21:54:32.249Z,4.40
2023-07-24T21:56:58.828Z,3.75
2023-07-24T21:59:25.401Z,4.63
2023-07-24T22:01:52.004Z,4.40
2023-07-24T22:04:19.270Z,5.75
2023-07-24T22:06:45.867Z,4.70
2023-07-24T22:09:12.448Z,6.88
2023-07-24T22:11:39.009Z,4.75
2023-07-24T22:14:05.632Z,5.20
2023-07-24T22:16:32.286Z,5.18
2023-07-24T22:19:01.538Z,5.82
2023-07-24T22:21:28.196Z,4.47
2023-07-24T22:23:54.906Z,5.78
2023-07-24T22:26:21.509Z,4.60
2023-07-24T22:28:48.088Z,4.32
2023-07-24T22:31:14.905Z,4.20
2023-07-24T22:33:41.506Z,5.05
2023-07-24T22:36:08.138Z,4.57
2023-07-24T22:38:34.746Z,5.00
2023-07-24T22:41:10.044Z,4.50
2023-07-24T22:43:37.086Z,4.35
2023-07-24T22:46:03.843Z,5.68
2023-07-24T22:48:30.616Z,4.82
2023-07-24T22:50:57.228Z,4.38
2023-07-24T22:53:23.792Z,4.93
2023-07-24T22:55:50.372Z,5.97
2023-07-24T22:58:16.929Z,4.85
2023-07-24T23:00:43.581Z,4.07
2023-07-24T23:03:11.278Z,4.70
2023-07-24T23:05:37.920Z,3.53
2023-07-24T23:08:04.631Z,3.92
2023-07-24T23:11:08.677Z,6.20
2023-07-24T23:13:35.185Z,4.82
2023-07-24T23:16:01.700Z,4.10
2023-07-24T23:18:28.211Z,4.50
2023-07-24T23:20:54.717Z,6.20
2023-07-24T23:23:21.208Z,4.75
2023-07-24T23:25:47.689Z,3.20
2023-07-24T23:28:14.645Z,4.28
2023-07-24T23:30:41.936Z,5.57
2023-07-24T23:33:09.323Z,4.13
2023-07-24T23:35:35.846Z,4.10
2023-07-24T23:38:02.698Z,6.65
2023-07-24T23:40:29.209Z,4.57
2023-07-24T23:42:55.719Z,5.05
2023-07-24T23:45:22.221Z,4.85
2023-07-24T23:47:48.710Z,5.18
2023-07-24T23:50:15.280Z,3.85
2023-07-24T23:52:41.789Z,5.28
2023-07-24T23:55:09.643Z,3.97
2023-07-24T23:57:36.172Z,9.02
